| time (UTC) | temp C | wind direction | speed KPH | gust KPH | rain 1hr cm | rain 24hr cm | rain mn cm | humidity % | barometer mb |
| 20260507080033 | 12 | 278 | 0.0 | 8.0 | 0.00 | 0.00 | 0.00 | 77 | 1021.5 |
| 20260507074532 | 12 | 294 | 1.6 | 4.8 | 0.00 | 0.00 | 0.00 | 77 | 1021.6 |
| 20260507073034 | 12 | 323 | 1.6 | 6.4 | 0.00 | 0.00 | 0.00 | 77 | 1021.5 |
| 20260507071529 | 12 | 35 | 0.0 | 4.8 | 0.00 | 0.00 | 0.00 | 77 | 1021.5 |
| 20260507070043 | 12 | 293 | 0.0 | 8.0 | 0.00 | 0.00 | 0.00 | 77 | 1021.5 |
| 20260507064600 | 12 | 288 | 0.0 | 9.7 | 0.00 | 0.00 | 0.00 | 77 | 1021.4 |
| 20260507064502 | 12 | 288 | 0.0 | 9.7 | 0.00 | 0.00 | 0.00 | 77 | 1021.4 |
| 20260507063009 | 12 | 41 | 3.2 | 9.7 | 0.00 | 0.00 | 0.00 | 78 | 1021.5 |
| 20260507061547 | 12 | 69 | 3.2 | 12.9 | 0.00 | 0.00 | 0.00 | 78 | 1021.6 |
| 20260507060048 | 12 | 38 | 1.6 | 9.7 | 0.00 | 0.00 | 0.00 | 78 | 1021.5 |
| 20260507054533 | 12 | 328 | 0.0 | 8.0 | 0.00 | 0.00 | 0.00 | 78 | 1021.4 |
| 20260507053016 | 12 | 354 | 1.6 | 8.0 | 0.00 | 0.00 | 0.00 | 78 | 1021.4 |
| 20260507051555 | 13 | 20 | 4.8 | 14.5 | 0.00 | 0.00 | 0.00 | 77 | 1021.4 |
| 20260507050027 | 13 | 343 | 3.2 | 9.7 | 0.00 | 0.00 | 0.00 | 77 | 1021.4 |
| 20260507044622 | 13 | 4 | 3.2 | 9.7 | 0.00 | 0.00 | 0.00 | 76 | 1021.6 |
| 20260507044502 | 13 | 18 | 1.6 | 9.7 | 0.00 | 0.00 | 0.00 | 76 | 1021.5 |
| 20260507043029 | 13 | 344 | 0.0 | 6.4 | 0.00 | 0.00 | 0.00 | 75 | 1021.4 |
| 20260507041553 | 13 | 340 | 3.2 | 8.0 | 0.00 | 0.00 | 0.00 | 75 | 1021.2 |
| 20260507040049 | 13 | 331 | 6.4 | 16.1 | 0.00 | 0.00 | 0.00 | 75 | 1021.0 |
| 20260507034544 | 14 | 340 | 3.2 | 9.7 | 0.00 | 0.00 | 0.00 | 75 | 1020.9 |
| 20260507033031 | 14 | 17 | 1.6 | 16.1 | 0.00 | 0.00 | 0.00 | 74 | 1020.6 |
| 20260507031510 | 15 | 359 | 3.2 | 12.9 | 0.00 | 0.00 | 0.00 | 74 | 1020.4 |
| 20260507024512 | 15 | 4 | 0.0 | 6.4 | 0.00 | 0.00 | 0.00 | 73 | 1020.0 |
| 20260507023052 | 16 | 320 | 3.2 | 6.4 | 0.00 | 0.00 | 0.00 | 72 | 1019.9 |
| 20260507021537 | 16 | 57 | 1.6 | 6.4 | 0.00 | 0.00 | 0.00 | 71 | 1019.8 |
| 20260507020058 | 16 | 310 | 1.6 | 8.0 | 0.00 | 0.00 | 0.00 | 69 | 1019.9 |
| 20260507014549 | 17 | 87 | 3.2 | 17.7 | 0.00 | 0.00 | 0.00 | 69 | 1020.0 |
| 20260507013016 | 17 | 350 | 9.7 | 17.7 | 0.00 | 0.00 | 0.00 | 68 | 1019.9 |
| 20260507011528 | 18 | 326 | 8.0 | 19.3 | 0.00 | 0.00 | 0.00 | 67 | 1019.9 |
| 20260507010004 | 18 | 346 | 3.2 | 14.5 | 0.00 | 0.00 | 0.00 | 68 | 1019.8 |
| 20260507004528 | 18 | 4 | 3.2 | 9.7 | 0.00 | 0.00 | 0.00 | 67 | 1019.8 |
| 20260507003040 | 19 | 339 | 4.8 | 12.9 | 0.00 | 0.00 | 0.00 | 66 | 1019.7 |
| 20260507001535 | 19 | 354 | 3.2 | 11.3 | 0.00 | 0.00 | 0.00 | 64 | 1019.7 |
| 20260507000012 | 19 | 135 | 1.6 | 8.0 | 0.00 | 0.00 | 0.00 | 66 | 1019.6 |
| 20260506234545 | 20 | 324 | 4.8 | 8.0 | 0.00 | 0.00 | 0.00 | 64 | 1019.7 |
| 20260506233057 | 20 | 97 | 1.6 | 6.4 | 0.00 | 0.00 | 0.00 | 62 | 1019.6 |
| 20260506231522 | 19 | 79 | 0.0 | 6.4 | 0.00 | 0.00 | 0.00 | 64 | 1019.8 |
| 20260506230103 | 20 | 202 | 0.0 | 6.4 | 0.00 | 0.00 | 0.00 | 63 | 1019.9 |
| 20260506230001 | 20 | 202 | 0.0 | 6.4 | 0.00 | 0.00 | 0.00 | 63 | 1020.0 |
| 20260506224541 | 20 | 238 | 0.0 | 4.8 | 0.00 | 0.00 | 0.00 | 65 | 1020.1 |
| 20260506223055 | 20 | 318 | 0.0 | 4.8 | 0.00 | 0.00 | 0.00 | 62 | 1020.3 |
| 20260506221533 | 20 | 193 | 1.6 | 8.0 | 0.00 | 0.00 | 0.00 | 64 | 1020.4 |
| 20260506220014 | 18 | 147 | 1.6 | 6.4 | 0.00 | 0.00 | 0.00 | 66 | 1020.5 |
| 20260506214533 | 18 | 173 | 4.8 | 9.7 | 0.00 | 0.00 | 0.00 | 67 | 1020.4 |
| 20260506213014 | 18 | 77 | 3.2 | 11.3 | 0.00 | 0.00 | 0.00 | 67 | 1020.5 |
| 20260506211535 | 19 | 148 | 1.6 | 8.0 | 0.00 | 0.00 | 0.00 | 67 | 1020.7 |
| 20260506210052 | 17 | 189 | 4.8 | 8.0 | 0.00 | 0.00 | 0.00 | 71 | 1021.0 |
| 20260506204535 | 17 | 318 | 1.6 | 8.0 | 0.00 | 0.00 | 0.00 | 71 | 1020.9 |
| 20260506203053 | 17 | 209 | 0.0 | 6.4 | 0.00 | 0.00 | 0.00 | 73 | 1020.9 |
| 20260506201513 | 17 | 98 | 1.6 | 6.4 | 0.00 | 0.00 | 0.00 | 72 | 1020.9 |
| 20260506200049 | 16 | 220 | 1.6 | 4.8 | 0.00 | 0.00 | 0.00 | 74 | 1021.0 |
| 20260506194517 | 17 | 175 | 0.0 | 6.4 | 0.00 | 0.00 | 0.00 | 74 | 1021.2 |
| 20260506193008 | 16 | 150 | 3.2 | 8.0 | 0.00 | 0.00 | 0.00 | 73 | 1021.3 |
| 20260506191543 | 16 | 236 | 1.6 | 9.7 | 0.00 | 0.00 | 0.00 | 74 | 1021.3 |
| 20260506190001 | 16 | 185 | 3.2 | 9.7 | 0.00 | 0.00 | 0.00 | 76 | 1021.1 |
| 20260506184547 | 15 | 198 | 1.6 | 11.3 | 0.00 | 0.00 | 0.00 | 76 | 1021.0 |
| 20260506183023 | 16 | 154 | 0.0 | 4.8 | 0.00 | 0.00 | 0.00 | 74 | 1021.0 |
| 20260506181605 | 16 | 195 | 1.6 | 8.0 | 0.00 | 0.00 | 0.00 | 75 | 1021.1 |
| 20260506180037 | 15 | 186 | 0.0 | 6.4 | 0.00 | 0.00 | 0.00 | 78 | 1021.0 |
| 20260506174519 | 15 | 199 | 3.2 | 8.0 | 0.00 | 0.00 | 0.00 | 79 | 1021.1 |
| 20260506173124 | 14 | 156 | 0.0 | 6.4 | 0.00 | 0.00 | 0.00 | 81 | 1020.8 |
| 20260506171528 | 13 | 227 | 3.2 | 8.0 | 0.00 | 0.00 | 0.00 | 82 | 1020.7 |
| 20260506170046 | 13 | 205 | 1.6 | 4.8 | 0.00 | 0.00 | 0.00 | 82 | 1020.8 |
| 20260506164541 | 13 | 164 | 0.0 | 3.2 | 0.00 | 0.00 | 0.00 | 83 | 1021.0 |
| 20260506163031 | 13 | 220 | 1.6 | 8.0 | 0.00 | 0.00 | 0.00 | 83 | 1020.8 |
| 20260506161641 | 13 | 224 | 1.6 | 4.8 | 0.00 | 0.00 | 0.00 | 83 | 1020.7 |
| 20260506161500 | 13 | 224 | 1.6 | 4.8 | 0.00 | 0.00 | 0.00 | 83 | 1020.7 |
| 20260506160021 | 13 | 114 | 0.0 | 4.8 | 0.00 | 0.00 | 0.00 | 84 | 1020.4 |
| 20260506154555 | 13 | 179 | 3.2 | 9.7 | 0.00 | 0.00 | 0.00 | 84 | 1020.3 |
| 20260506153047 | 13 | 168 | 1.6 | 6.4 | 0.00 | 0.00 | 0.00 | 84 | 1020.3 |
| 20260506151507 | 13 | 164 | 0.0 | 3.2 | 0.00 | 0.00 | 0.00 | 84 | 1020.8 |
| 20260506150044 | 13 | 114 | 0.0 | 3.2 | 0.00 | 0.00 | 0.00 | 83 | 1020.8 |
| 20260506144600 | 13 | 95 | 1.6 | 3.2 | 0.00 | 0.00 | 0.00 | 83 | 1020.6 |
| 20260506144509 | 13 | 96 | 1.6 | 3.2 | 0.00 | 0.00 | 0.00 | 83 | 1020.5 |
| 20260506143045 | 13 | 338 | 4.8 | 8.0 | 0.00 | 0.00 | 0.00 | 83 | 1020.4 |
| 20260506141520 | 13 | 91 | 4.8 | 8.0 | 0.00 | 0.00 | 0.00 | 83 | 1019.9 |
| 20260506140043 | 13 | 73 | 3.2 | 6.4 | 0.00 | 0.00 | 0.00 | 84 | 1019.9 |
| 20260506134517 | 13 | 80 | 3.2 | 6.4 | 0.00 | 0.00 | 0.00 | 84 | 1019.8 |
| 20260506133003 | 13 | 96 | 0.0 | 4.8 | 0.00 | 0.00 | 0.00 | 84 | 1019.7 |
| 20260506131528 | 13 | 72 | 0.0 | 3.2 | 0.00 | 0.00 | 0.00 | 84 | 1019.5 |
| 20260506130052 | 13 | 104 | 0.0 | 6.4 | 0.00 | 0.00 | 0.00 | 83 | 1019.5 |
| 20260506124534 | 13 | 102 | 0.0 | 1.6 | 0.00 | 0.00 | 0.00 | 83 | 1019.4 |
| 20260506123051 | 13 | 102 | 0.0 | 0.0 | 0.00 | 0.00 | 0.00 | 82 | 1019.3 |
| 20260506121528 | 13 | 102 | 0.0 | 0.0 | 0.00 | 0.00 | 0.00 | 83 | 1019.4 |
| 20260506120009 | 13 | 102 | 0.0 | 0.0 | 0.00 | 0.00 | 0.00 | 82 | 1019.2 |
| 20260506114526 | 13 | 102 | 0.0 | 0.0 | 0.00 | 0.00 | 0.00 | 82 | 1019.1 |
| 20260506113006 | 13 | 102 | 0.0 | 3.2 | 0.00 | 0.00 | 0.00 | 82 | 1019.0 |
| 20260506111526 | 13 | 102 | 0.0 | 0.0 | 0.00 | 0.00 | 0.00 | 81 | 1018.9 |
| 20260506110004 | 13 | 102 | 0.0 | 1.6 | 0.00 | 0.00 | 0.00 | 82 | 1018.7 |
| 20260506104527 | 13 | 102 | 0.0 | 0.0 | 0.00 | 0.00 | 0.00 | 82 | 1018.5 |
| 20260506103055 | 13 | 102 | 0.0 | 0.0 | 0.00 | 0.00 | 0.00 | 81 | 1018.3 |
| 20260506101521 | 13 | 102 | 0.0 | 1.6 | 0.00 | 0.00 | 0.00 | 81 | 1018.0 |
| 20260506094521 | 14 | 146 | 0.0 | 3.2 | 0.00 | 0.00 | 0.00 | 80 | 1017.9 |
| 20260506093039 | 14 | 116 | 0.0 | 4.8 | 0.00 | 0.00 | 0.00 | 80 | 1017.8 |
| 20260506091548 | 14 | 85 | 0.0 | 3.2 | 0.00 | 0.00 | 0.00 | 80 | 1017.8 |
| 20260506090027 | 15 | 96 | 0.0 | 6.4 | 0.00 | 0.00 | 0.00 | 79 | 1017.7 |
| 20260506084607 | 15 | 74 | 1.6 | 4.8 | 0.00 | 0.00 | 0.00 | 79 | 1017.6 |
| 20260506083032 | 15 | 276 | 0.0 | 0.0 | 0.00 | 0.00 | 0.00 | 79 | 1017.7 |
| 20260506081509 | 15 | 276 | 0.0 | 0.0 | 0.00 | 0.00 | 0.00 | 79 | 1017.7 |